Time;durP1;ratioP1;P1;durP2;ratioP2;P2;SDS_P1;SDS_P2;PMS_P1;PMS_P2;Temp;Humidity;BMP_temperature;BMP_pressure;BME280_temperature;BME280_humidity;BME280_pressure;Samples;Min_cycle;Max_cycle;Signal;HPM_P1;HPM_P2
2022/02/10 00:19:45;;;;;;;9.90;5.95;;;;;;;5.72;93.62;99184.59;4171274;28;20045;-72
2022/02/10 00:35:32;;;;;;;8.55;5.13;;;;;;;5.55;93.98;99169.00;4171819;28;20047;-72
2022/02/10 00:37:48;;;;;;;8.10;4.68;;;;;;;5.54;93.46;99167.38;4169790;28;20072;-72
2022/02/10 00:41:51;;;;;;;7.90;5.28;;;;;;;5.48;93.81;99168.69;4171698;28;20435;-72
2022/02/10 00:43:51;;;;;;;8.43;5.10;;;;;;;5.43;93.84;99161.44;4171825;28;20469;-72
2022/02/10 00:45:51;;;;;;;5.35;4.30;;;;;;;5.35;94.09;99156.78;4171534;28;20049;-72
2022/02/10 00:49:59;;;;;;;7.40;5.40;;;;;;;5.25;95.15;99168.09;4171591;28;20401;-72
2022/02/10 00:51:59;;;;;;;7.28;5.80;;;;;;;5.17;95.64;99166.97;4171574;28;20053;-72
2022/02/10 00:54:00;;;;;;;8.70;5.50;;;;;;;5.16;95.73;99167.31;4171012;28;20732;-72
2022/02/10 00:56:01;;;;;;;8.13;6.03;;;;;;;5.07;95.40;99159.91;4170164;28;20049;-72
2022/02/10 00:58:05;;;;;;;7.85;5.38;;;;;;;5.03;95.95;99155.38;4168995;28;20064;-73
2022/02/10 01:07:01;;;;;;;8.07;5.75;;;;;;;4.88;95.87;99148.47;4153862;28;20051;-72
2022/02/10 01:12:18;;;;;;;12.98;6.63;;;;;;;4.64;95.18;99142.69;4171093;28;20136;-72
2022/02/10 01:14:37;;;;;;;9.02;5.10;;;;;;;4.58;96.19;99141.22;4170347;28;20142;-72
2022/02/10 01:30:30;;;;;;;8.10;5.28;;;;;;;4.09;95.59;99141.31;4170604;28;20056;-72
2022/02/10 01:32:30;;;;;;;8.77;5.53;;;;;;;4.08;96.31;99128.75;4170926;28;20037;-72
2022/02/10 01:34:33;;;;;;;11.43;5.97;;;;;;;3.98;95.51;99128.25;4170501;28;20045;-72
2022/02/10 01:36:33;;;;;;;7.43;5.43;;;;;;;3.97;96.42;99138.38;4169736;28;20107;-72
2022/02/10 01:38:34;;;;;;;9.02;5.90;;;;;;;3.93;96.31;99132.75;4170611;28;20061;-72
2022/02/10 02:03:26;;;;;;;67.82;22.10;;;;;;;3.44;96.80;99089.28;4170504;28;20055;-72
2022/02/10 02:05:36;;;;;;;49.95;17.20;;;;;;;3.30;96.85;99081.97;4170374;28;20405;-72
2022/02/10 02:07:37;;;;;;;45.63;15.18;;;;;;;3.27;98.34;99082.63;4168980;28;20045;-72
2022/02/10 02:09:38;;;;;;;31.92;12.82;;;;;;;3.18;97.82;99078.25;4170236;28;20056;-72
2022/02/10 02:11:39;;;;;;;30.75;12.10;;;;;;;3.15;98.00;99070.69;4170206;28;20485;-72
2022/02/10 02:13:40;;;;;;;34.10;13.48;;;;;;;3.10;98.72;99068.88;4169875;28;20059;-72
2022/02/10 02:15:40;;;;;;;43.47;15.20;;;;;;;3.04;99.06;99062.72;4169992;28;20064;-72
2022/02/10 02:17:40;;;;;;;37.17;13.20;;;;;;;3.02;96.97;99061.44;4169369;28;20040;-72
2022/02/10 02:19:41;;;;;;;43.58;14.23;;;;;;;3.00;100.00;99072.69;4169846;28;20110;-72
2022/02/10 02:21:42;;;;;;;47.33;16.38;;;;;;;2.98;99.83;99060.44;4169655;28;20412;-72
2022/02/10 02:23:43;;;;;;;39.55;14.57;;;;;;;2.92;98.56;99053.50;4169879;28;20037;-72
2022/02/10 02:25:44;;;;;;;43.78;16.38;;;;;;;2.94;100.00;99052.06;4170170;28;20821;-72
2022/02/10 02:27:51;;;;;;;45.63;17.25;;;;;;;2.93;97.81;99055.91;4168750;28;20489;-72
2022/02/10 02:30:08;;;;;;;72.72;27.52;;;;;;;2.93;98.25;99055.91;4170128;28;20080;-72
2022/02/10 02:32:14;;;;;;;73.97;26.08;;;;;;;2.91;98.45;99049.16;4169673;28;20051;-72
2022/02/10 02:34:46;;;;;;;74.93;25.05;;;;;;;2.85;97.83;99042.22;4170147;28;20029;-72
2022/02/10 03:04:53;;;;;;;17.27;7.45;;;;;;;2.22;99.47;99033.09;4169216;28;20315;-72
2022/02/10 03:07:01;;;;;;;11.70;5.60;;;;;;;2.14;99.89;99036.56;4168516;28;20555;-72
2022/02/10 03:09:12;;;;;;;10.68;6.82;;;;;;;2.06;99.70;99023.66;4168365;28;20041;-72
2022/02/10 03:11:14;;;;;;;16.35;6.20;;;;;;;2.03;100.00;99025.09;4168975;28;20057;-72
2022/02/10 03:13:24;;;;;;;10.52;6.00;;;;;;;1.97;99.62;99021.66;4169240;28;20049;-72
2022/02/10 03:15:35;;;;;;;11.88;5.13;;;;;;;1.96;99.67;99013.78;4169358;28;20052;-72
2022/02/10 03:17:56;;;;;;;8.05;4.68;;;;;;;1.95;100.00;99009.44;4169375;28;20370;-72
2022/02/10 03:20:06;;;;;;;8.32;5.40;;;;;;;1.91;100.00;99017.47;4172303;28;20045;-72
2022/02/10 04:04:04;;;;;;;8.55;4.57;;;;;;;1.17;100.00;98984.16;4171058;28;20098;-72
2022/02/10 04:11:01;;;;;;;6.95;4.18;;;;;;;1.19;100.00;98962.84;4160772;28;20059;-72
2022/02/10 04:15:19;;;;;;;5.65;4.40;;;;;;;1.25;100.00;98953.47;4171597;28;20111;-72
2022/02/10 04:20:22;;;;;;;6.22;4.13;;;;;;;1.21;100.00;98955.16;4171559;28;20150;-72
2022/02/10 04:22:06;;;;;;;7.22;4.55;;;;;;;1.13;100.00;98953.16;4165399;28;20055;-72
2022/02/10 04:26:37;;;;;;;9.38;5.15;;;;;;;1.26;100.00;98936.00;4171681;28;20485;-72
2022/02/10 05:23:19;;;;;;;11.10;5.25;;;;;;;0.71;100.00;98897.06;4171005;28;20308;-72
2022/02/10 05:31:29;;;;;;;6.78;4.47;;;;;;;0.72;100.00;98895.97;4170887;28;20195;-72
2022/02/10 05:34:56;;;;;;;8.95;4.55;;;;;;;0.67;100.00;98896.88;4170975;28;20091;-72
2022/02/10 05:36:59;;;;;;;8.90;5.10;;;;;;;0.69;100.00;98902.03;4170106;28;20102;-72
2022/02/10 05:39:17;;;;;;;9.85;5.40;;;;;;;0.76;100.00;98905.16;4169731;28;20095;-72
2022/02/10 05:44:00;;;;;;;10.65;5.70;;;;;;;0.88;100.00;98899.19;4170721;28;20459;-72
2022/02/10 05:46:10;;;;;;;10.50;5.68;;;;;;;0.92;100.00;98898.28;4170359;28;20095;-72
2022/02/10 06:02:14;;;;;;;7.50;5.20;;;;;;;1.54;100.00;98879.44;4169597;28;20164;-72
2022/02/10 06:50:48;;;;;;;11.35;6.85;;;;;;;2.87;97.07;98859.59;4169785;28;20063;-72
2022/02/10 06:52:55;;;;;;;9.93;6.57;;;;;;;2.81;97.17;98873.41;4168806;28;20123;-72
2022/02/10 06:55:15;;;;;;;16.23;9.70;;;;;;;2.78;97.04;98867.75;4169981;28;20059;-72
2022/02/10 07:04:42;;;;;;;12.80;7.35;;;;;;;2.73;97.24;98848.75;4169672;28;20043;-72
2022/02/10 07:09:20;;;;;;;10.43;6.78;;;;;;;2.65;97.46;98850.38;4169785;28;20451;-72
2022/02/10 07:11:48;;;;;;;9.93;7.47;;;;;;;2.65;97.45;98844.06;4169395;28;20496;-72
2022/02/10 07:16:27;;;;;;;10.10;6.82;;;;;;;2.72;97.46;98836.22;4169534;28;20127;-72
2022/02/10 07:46:59;;;;;;;8.70;5.88;;;;;;;3.56;90.84;98804.97;4169445;28;20040;-72
2022/02/10 07:53:25;;;;;;;12.45;6.65;;;;;;;3.78;89.31;98828.56;4169269;28;20048;-72
2022/02/10 07:57:44;;;;;;;10.10;6.80;;;;;;;3.82;89.24;98840.50;4168423;28;20107;-72
2022/02/10 08:49:52;;;;;;;9.82;6.47;;;;;;;4.31;85.89;98838.28;4171988;28;20128;-72
2022/02/10 08:54:59;;;;;;;9.88;5.93;;;;;;;4.98;80.68;98818.25;4171283;28;20049;-72
2022/02/10 08:57:23;;;;;;;8.43;5.28;;;;;;;4.98;80.70;98810.03;4170684;28;20048;-72
2022/02/10 09:10:51;;;;;;;13.27;6.55;;;;;;;5.07;81.16;98824.50;4171449;28;20101;-72
2022/02/10 09:12:56;;;;;;;11.65;6.05;;;;;;;5.07;81.50;98816.25;4170895;28;20040;-72
2022/02/10 09:18:18;;;;;;;12.18;7.50;;;;;;;5.17;81.57;98815.06;4169315;28;20060;-72
2022/02/10 09:25:11;;;;;;;11.30;6.75;;;;;;;5.37;81.33;98808.75;4170508;28;20049;-72
2022/02/10 09:51:36;;;;;;;18.35;8.60;;;;;;;5.84;79.37;98797.50;4136648;28;20087;-72
2022/02/10 09:59:24;;;;;;;14.68;7.38;;;;;;;5.80;78.98;98797.41;4170546;28;20060;-72
2022/02/10 10:01:34;;;;;;;12.13;6.97;;;;;;;5.79;78.74;98792.22;4169646;28;20037;-72
2022/02/10 10:03:41;;;;;;;13.07;6.57;;;;;;;5.75;79.38;98794.06;4170446;28;20357;-72
2022/02/10 10:05:53;;;;;;;11.25;5.70;;;;;;;5.78;79.17;98802.41;4170343;28;20060;-72
2022/02/10 10:10:43;;;;;;;11.00;6.40;;;;;;;5.77;78.65;98809.03;4170503;28;20052;-72
2022/02/10 10:15:21;;;;;;;13.30;6.70;;;;;;;5.84;77.42;98808.50;4170069;28;20098;-72
2022/02/10 10:20:06;;;;;;;10.43;6.43;;;;;;;5.79;78.50;98812.28;4170195;28;20044;-72
2022/02/10 10:22:23;;;;;;;12.38;6.43;;;;;;;5.77;78.57;98816.47;4169783;28;20497;-72
2022/02/10 10:50:15;;;;;;;13.63;9.15;;;;;;;5.43;80.93;98820.34;4169729;28;20139;-72
2022/02/10 10:52:28;;;;;;;16.38;8.88;;;;;;;5.42;81.47;98811.31;4169290;28;20051;-72
2022/02/10 10:56:34;;;;;;;14.05;8.15;;;;;;;5.41;80.97;98808.91;4169404;28;20067;-72
2022/02/10 10:59:10;;;;;;;13.02;8.05;;;;;;;5.44;81.35;98819.19;4169608;28;20049;-72
2022/02/10 11:03:43;;;;;;;12.32;8.32;;;;;;;5.40;81.82;98818.28;4169603;28;20580;-72
2022/02/10 11:38:32;;;;;;;12.85;8.10;;;;;;;5.41;82.75;98812.44;4168595;28;20350;-72
2022/02/10 11:40:39;;;;;;;15.43;9.43;;;;;;;5.36;82.42;98807.16;4171798;28;20499;-72
2022/02/10 11:42:54;;;;;;;15.32;9.00;;;;;;;5.41;82.81;98812.44;4172952;28;20094;-72
2022/02/10 12:38:18;;;;;;;19.13;11.20;;;;;;;5.22;84.96;98836.81;4171240;28;20781;-72
2022/02/10 12:43:17;;;;;;;20.30;11.55;;;;;;;5.42;84.15;98844.25;4172385;28;20041;-72
2022/02/10 13:35:37;;;;;;;18.67;10.85;;;;;;;5.22;86.78;98829.38;4171290;28;20147;-72
2022/02/10 14:10:24;;;;;;;16.77;9.93;;;;;;;5.62;85.70;98870.06;4169350;28;20052;-72
2022/02/10 14:19:07;;;;;;;11.33;7.83;;;;;;;5.52;85.46;98854.81;4143557;28;20516;-72
2022/02/10 14:21:16;;;;;;;19.27;8.35;;;;;;;5.52;85.41;98863.03;4165080;28;20617;-73
2022/02/10 14:25:41;;;;;;;16.10;9.82;;;;;;;5.64;84.90;98874.09;4167340;28;20056;-72
2022/02/10 14:27:43;;;;;;;13.27;9.43;;;;;;;5.60;86.23;98881.38;4165837;28;20127;-72
2022/02/10 14:29:44;;;;;;;18.17;10.98;;;;;;;5.61;86.36;98876.69;4168607;28;20080;-72
2022/02/10 14:31:45;;;;;;;15.73;9.32;;;;;;;5.57;86.35;98870.28;4169769;28;20052;-72
2022/02/10 14:33:46;;;;;;;17.08;10.27;;;;;;;5.65;85.32;98869.41;4167614;28;20052;-72
2022/02/10 14:36:00;;;;;;;16.55;10.68;;;;;;;5.60;85.44;98877.84;4169143;28;20817;-72
2022/02/10 14:40:35;;;;;;;16.98;10.52;;;;;;;5.53;86.48;98877.56;4169322;28;20045;-72
2022/02/10 15:50:41;;;;;;;22.98;12.98;;;;;;;5.39;86.90;98897.06;4168302;28;20063;-72
2022/02/10 16:10:48;;;;;;;18.02;10.98;;;;;;;5.33;87.57;98892.88;4168611;28;20470;-72
2022/02/10 16:10:59;;;;;;;15.43;9.02;;;;;;;5.27;87.48;98869.53;4168216;28;20551;-72
2022/02/10 16:17:38;;;;;;;11.68;7.93;;;;;;;5.33;86.13;98884.66;4168865;28;20125;-72
2022/02/10 16:19:41;;;;;;;20.02;13.05;;;;;;;5.29;86.58;98876.28;4169303;28;20032;-72
2022/02/10 16:21:46;;;;;;;14.05;9.35;;;;;;;5.28;86.20;98874.66;4168660;28;20493;-72
2022/02/10 16:23:47;;;;;;;20.70;11.32;;;;;;;5.31;85.85;98870.47;4168936;28;20068;-72
2022/02/10 16:25:51;;;;;;;15.90;9.00;;;;;;;5.32;85.66;98859.16;4170258;28;20045;-72
2022/02/10 16:27:59;;;;;;;16.58;9.45;;;;;;;5.30;86.13;98858.69;4171190;28;20049;-72
2022/02/10 16:30:07;;;;;;;10.57;6.95;;;;;;;5.22;86.77;98862.31;4171884;28;20527;-72
2022/02/10 16:32:11;;;;;;;12.23;7.53;;;;;;;5.22;86.48;98867.00;4171184;28;20109;-72
2022/02/10 16:34:12;;;;;;;11.30;6.72;;;;;;;5.19;87.33;98865.69;4171624;28;20139;-72
2022/02/10 16:36:16;;;;;;;14.70;8.88;;;;;;;5.17;87.36;98867.19;4171699;28;20566;-72
2022/02/10 16:38:16;;;;;;;12.77;8.70;;;;;;;5.16;88.10;98871.84;4171920;28;20517;-72
2022/02/10 16:40:17;;;;;;;16.60;9.68;;;;;;;5.18;88.43;98874.28;4171614;28;20079;-72
2022/02/10 16:42:17;;;;;;;16.42;9.50;;;;;;;5.19;88.11;98875.88;4171672;28;20025;-72
2022/02/10 16:44:18;;;;;;;14.77;8.35;;;;;;;5.16;88.14;98882.84;4171994;28;20025;-72
2022/02/10 16:46:19;;;;;;;15.00;8.77;;;;;;;5.14;88.97;98881.56;4170969;28;20123;-72
2022/02/10 16:48:19;;;;;;;11.38;8.02;;;;;;;5.11;89.26;98885.75;4170047;28;20056;-72
2022/02/10 16:50:20;;;;;;;12.25;7.82;;;;;;;5.13;89.40;98883.50;4171073;28;20033;-72
2022/02/10 16:52:33;;;;;;;12.32;7.72;;;;;;;5.10;89.96;98880.59;4170752;28;20033;-72
2022/02/10 16:54:40;;;;;;;14.43;8.35;;;;;;;5.07;90.13;98891.13;4171575;28;20045;-72
2022/02/10 16:56:50;;;;;;;15.70;8.20;;;;;;;5.17;89.09;98895.41;4171328;28;20037;-72
2022/02/10 16:59:25;;;;;;;12.75;7.85;;;;;;;5.15;89.95;98891.41;4171870;28;20095;-72
2022/02/10 17:01:44;;;;;;;11.00;7.30;;;;;;;5.16;90.13;98898.50;4170899;28;20051;-72
2022/02/10 17:28:42;;;;;;;16.08;9.20;;;;;;;4.91;97.70;98906.53;4170547;28;20128;-72
2022/02/10 17:41:48;;;;;;;21.52;11.82;;;;;;;4.83;98.77;98907.38;4172271;28;20048;-71
2022/02/10 17:46:18;;;;;;;29.45;13.88;;;;;;;4.81;99.76;98901.41;4170946;28;20041;-71
2022/02/10 17:53:03;;;;;;;15.23;9.43;;;;;;;4.75;100.00;98898.06;4170161;28;20056;-71
2022/02/10 17:55:09;;;;;;;18.42;10.00;;;;;;;4.76;100.00;98904.34;4171351;28;20396;-71
2022/02/10 17:57:10;;;;;;;17.02;10.10;;;;;;;4.75;99.97;98909.00;4170092;28;20048;-72
2022/02/10 17:59:10;;;;;;;16.58;10.43;;;;;;;4.70;100.00;98898.22;4169849;28;20075;-71
2022/02/10 18:01:11;;;;;;;15.30;10.00;;;;;;;4.71;99.94;98904.50;4171200;28;20075;-71
2022/02/10 18:03:12;;;;;;;18.27;10.95;;;;;;;4.68;99.57;98888.72;4170557;28;20045;-71
2022/02/10 18:05:33;;;;;;;16.55;9.43;;;;;;;4.70;99.49;98905.63;4171813;28;20053;-71
2022/02/10 18:07:33;;;;;;;13.90;9.80;;;;;;;4.66;99.97;98904.72;4169307;28;20047;-71
2022/02/10 18:09:59;;;;;;;13.10;8.98;;;;;;;4.71;100.00;98901.75;4169601;28;20053;-71
2022/02/10 18:14:02;;;;;;;13.90;10.23;;;;;;;4.69;100.00;98904.84;4169123;28;20037;-71
2022/02/10 18:16:07;;;;;;;30.33;16.75;;;;;;;4.69;100.00;98906.78;4167362;28;20167;-72
2022/02/10 18:18:19;;;;;;;23.63;13.98;;;;;;;4.67;99.74;98898.88;4169225;28;20032;-72
2022/02/10 18:20:26;;;;;;;21.55;14.10;;;;;;;4.69;100.00;98904.84;4169540;28;20039;-72
2022/02/10 18:22:47;;;;;;;23.13;12.55;;;;;;;4.71;99.84;98904.50;4169673;28;20053;-72
2022/02/10 18:54:32;;;;;;;18.20;9.82;;;;;;;4.69;99.13;98912.25;4170360;28;20056;-71
2022/02/10 19:07:52;;;;;;;9.57;6.70;;;;;;;4.71;98.50;98897.09;4168153;28;20063;-71
2022/02/10 19:09:55;;;;;;;;;;;;;;;4.73;99.09;98897.59;4170017;28;20049;-71
2022/02/10 19:12:01;;;;;;;7.43;5.43;;;;;;;4.78;98.40;98889.16;4169763;28;19947;-71
2022/02/10 19:14:04;;;;;;;6.95;5.00;;;;;;;4.78;97.92;98893.84;4167308;28;20044;-71
2022/02/10 19:16:05;;;;;;;8.73;5.43;;;;;;;4.81;98.30;98898.69;4166115;28;20033;-71
2022/02/10 19:18:07;;;;;;;8.32;5.45;;;;;;;4.81;98.71;98876.75;4166313;28;20526;-72
2022/02/10 19:20:08;;;;;;;7.40;5.38;;;;;;;4.84;98.89;98888.97;4168198;28;20029;-72
2022/02/10 19:22:09;;;;;;;7.65;5.22;;;;;;;4.80;98.36;98886.09;4167543;28;20134;-71
2022/02/10 19:24:09;;;;;;;9.32;5.57;;;;;;;4.79;98.71;98882.53;4168600;28;20497;-72
2022/02/10 19:26:10;;;;;;;7.45;5.95;;;;;;;4.78;98.77;98888.34;4168344;28;20054;-72
2022/02/10 19:28:10;;;;;;;10.07;6.07;;;;;;;4.80;98.53;98888.84;4168208;28;20195;-72
2022/02/10 19:30:14;;;;;;;9.95;6.47;;;;;;;4.79;98.86;98885.28;4169315;28;20040;-71
2022/02/10 19:32:17;;;;;;;11.52;7.03;;;;;;;4.77;98.41;98886.75;4169218;28;20035;-71
2022/02/10 19:34:18;;;;;;;10.75;6.70;;;;;;;4.76;98.88;98885.16;4168920;28;20021;-72
2022/02/10 19:36:18;;;;;;;14.43;7.80;;;;;;;4.77;98.70;98895.78;4168655;28;20463;-72
2022/02/10 19:38:22;;;;;;;11.20;7.40;;;;;;;4.75;99.42;98884.34;4168674;28;20033;-72
2022/02/10 19:40:28;;;;;;;12.93;7.68;;;;;;;4.72;99.70;98878.72;4168820;28;20037;-71
2022/02/10 19:42:33;;;;;;;18.02;8.95;;;;;;;4.72;98.90;98884.22;4167518;28;20045;-72
2022/02/10 19:44:34;;;;;;;16.77;9.00;;;;;;;4.75;98.69;98889.03;4167891;28;20052;-71
2022/02/10 19:46:35;;;;;;;19.80;10.02;;;;;;;4.77;99.05;98884.00;4166663;28;20049;-72
2022/02/10 19:48:35;;;;;;;17.65;10.23;;;;;;;4.74;99.56;98890.97;4168998;28;20098;-71
2022/02/10 19:50:36;;;;;;;17.85;9.52;;;;;;;4.75;99.57;98889.81;4168629;28;20041;-72
2022/02/10 19:52:41;;;;;;;17.85;10.07;;;;;;;4.76;99.72;98890.63;4169173;28;20045;-71
2022/02/10 19:54:47;;;;;;;23.02;10.73;;;;;;;4.75;99.19;98883.53;4167202;28;20429;-71
2022/02/10 19:56:47;;;;;;;23.80;12.57;;;;;;;4.73;99.44;98888.56;4167332;28;20095;-71
2022/02/10 19:58:48;;;;;;;16.88;9.38;;;;;;;4.82;99.57;98883.03;4168494;28;20436;-71
2022/02/10 20:00:53;;;;;;;17.40;9.98;;;;;;;4.79;99.59;98887.22;4167984;28;20049;-72
2022/02/10 20:02:54;;;;;;;19.83;11.00;;;;;;;4.78;99.50;98891.09;4170710;28;20423;-71
2022/02/10 20:04:55;;;;;;;21.52;10.30;;;;;;;4.81;99.78;98890.44;4171252;28;20036;-71
2022/02/10 20:06:56;;;;;;;16.45;9.95;;;;;;;4.81;100.00;98890.44;4170444;28;20052;-71
2022/02/10 20:08:56;;;;;;;23.63;9.98;;;;;;;4.77;99.35;98887.56;4169991;28;20755;-71
2022/02/10 20:10:57;;;;;;;12.82;7.32;;;;;;;4.78;99.56;98896.56;4171915;28;20068;-71
2022/02/10 20:12:58;;;;;;;11.02;7.38;;;;;;;4.76;99.99;98890.63;4171398;28;20481;-71
2022/02/10 20:14:58;;;;;;;12.27;8.23;;;;;;;4.72;99.66;98886.94;4171166;28;20048;-71
2022/02/10 20:16:58;;;;;;;10.15;7.00;;;;;;;4.70;100.00;98887.25;4170125;28;20040;-71
2022/02/10 20:19:01;;;;;;;11.40;7.18;;;;;;;4.67;100.00;98890.66;4171054;28;20523;-71
2022/02/10 20:21:03;;;;;;;11.55;7.65;;;;;;;4.67;100.00;98885.19;4171171;28;20037;-71
2022/02/10 20:23:04;;;;;;;9.43;7.00;;;;;;;4.67;100.00;98890.66;4171462;28;20045;-71
2022/02/10 20:25:06;;;;;;;11.90;6.70;;;;;;;4.70;100.00;98891.94;4170948;28;20040;-71
2022/02/10 20:27:07;;;;;;;8.68;6.60;;;;;;;4.70;100.00;98891.94;4170029;28;20037;-71
2022/02/10 20:29:10;;;;;;;9.55;6.80;;;;;;;4.68;100.00;98888.72;4171257;28;20186;-71
2022/02/10 20:31:11;;;;;;;9.30;6.22;;;;;;;4.65;100.00;98884.72;4171145;28;20308;-71
2022/02/10 20:33:12;;;;;;;7.40;5.57;;;;;;;4.63;100.00;98883.41;4170479;28;20244;-71
2022/02/10 20:35:14;;;;;;;9.07;6.70;;;;;;;4.61;100.00;98878.28;4171186;28;20049;-71
2022/02/10 20:37:14;;;;;;;8.55;6.07;;;;;;;4.64;100.00;98885.84;4169117;28;20462;-71
2022/02/10 20:39:22;;;;;;;9.88;6.35;;;;;;;4.66;100.00;98880.84;4169714;28;20163;-71
2022/02/10 20:41:24;;;;;;;13.48;6.63;;;;;;;4.64;100.00;98877.63;4170794;28;20059;-71
2022/02/10 20:43:25;;;;;;;9.10;6.97;;;;;;;4.60;100.00;98881.34;4170580;28;20045;-71
2022/02/10 20:45:26;;;;;;;7.93;6.43;;;;;;;4.60;100.00;98881.34;4170584;28;20163;-71
2022/02/10 20:47:27;;;;;;;8.30;6.03;;;;;;;4.60;100.00;98884.88;4170280;28;20045;-71
2022/02/10 20:49:27;;;;;;;7.35;5.70;;;;;;;4.57;100.00;98876.53;4170770;28;20358;-71
2022/02/10 20:51:28;;;;;;;10.57;7.28;;;;;;;4.55;100.00;98876.88;4169847;28;20041;-71
2022/02/10 20:53:30;;;;;;;14.00;9.02;;;;;;;4.55;100.00;98882.34;4170514;28;20101;-71
2022/02/10 20:55:30;;;;;;;20.40;11.77;;;;;;;4.50;100.00;98880.56;4170907;28;20787;-71
2022/02/10 20:57:31;;;;;;;23.70;13.43;;;;;;;4.47;100.00;98873.03;4168594;28;20163;-71
2022/02/10 20:59:45;;;;;;;27.83;14.55;;;;;;;4.47;100.00;98878.50;4170196;28;20507;-71
2022/02/10 21:01:51;;;;;;;33.38;17.77;;;;;;;4.46;100.00;98873.31;4170304;28;20068;-71
2022/02/10 21:03:51;;;;;;;31.50;18.42;;;;;;;4.42;100.00;98869.66;4171361;28;20542;-71
2022/02/10 21:06:01;;;;;;;40.30;21.30;;;;;;;4.36;100.00;98874.50;4167997;28;20069;-71
2022/02/10 21:08:13;;;;;;;21.42;12.35;;;;;;;4.35;100.00;98870.16;4168309;28;20474;-72
2022/02/10 21:10:16;;;;;;;16.73;10.15;;;;;;;4.39;100.00;98881.28;4169807;28;20043;-71
2022/02/10 21:12:16;;;;;;;10.45;7.75;;;;;;;4.36;100.00;98879.16;4169154;28;20064;-71
2022/02/10 21:14:19;;;;;;;11.98;7.53;;;;;;;4.32;100.00;98880.97;4170033;28;20036;-71
2022/02/10 21:16:19;;;;;;;10.70;7.75;;;;;;;4.30;100.00;98878.53;4170543;28;20035;-71
2022/02/10 21:18:20;;;;;;;11.27;7.97;;;;;;;4.32;100.00;98883.72;4169131;28;21178;-71
2022/02/10 21:20:22;;;;;;;11.63;8.20;;;;;;;4.29;100.00;98889.81;4170006;28;20040;-72
2022/02/10 21:22:22;;;;;;;9.40;6.40;;;;;;;4.22;100.00;98904.84;4169619;28;20190;-71
2022/02/10 21:24:28;;;;;;;6.25;4.00;;;;;;;3.86;100.00;98901.66;4170509;28;20489;-71
2022/02/10 21:26:33;;;;;;;6.57;4.63;;;;;;;3.82;100.00;98898.78;4170059;28;20041;-71
2022/02/10 21:28:36;;;;;;;10.60;5.18;;;;;;;3.65;100.00;98899.59;4170388;28;20707;-71
2022/02/10 21:30:37;;;;;;;6.28;4.30;;;;;;;3.44;100.00;98904.06;4169390;28;20072;-71
2022/02/10 21:35:02;;;;;;;5.38;3.28;;;;;;;3.17;100.00;98899.69;4170106;28;20044;-71
2022/02/10 21:37:07;;;;;;;5.63;3.40;;;;;;;3.20;100.00;98903.72;4167070;28;20495;-71
2022/02/10 21:53:07;;;;;;;5.82;3.25;;;;;;;2.94;100.00;98907.19;4169401;28;20073;-71
2022/02/10 22:19:24;;;;;;;5.60;3.08;;;;;;;2.65;100.00;98915.94;4167976;28;20065;-71
2022/02/10 22:21:38;;;;;;;5.88;3.35;;;;;;;2.66;100.00;98916.75;4169436;28;20582;-71
2022/02/10 22:23:43;;;;;;;4.75;3.50;;;;;;;2.66;100.00;98914.03;4169176;28;20081;-71
2022/02/10 22:25:44;;;;;;;6.03;3.33;;;;;;;2.66;100.00;98917.56;4169563;28;20265;-71
2022/02/10 22:27:48;;;;;;;7.82;3.60;;;;;;;2.65;100.00;98917.84;4168092;28;20043;-71
2022/02/10 22:29:53;;;;;;;5.80;3.25;;;;;;;2.58;100.00;98915.59;4168768;28;20051;-71
2022/02/10 22:32:05;;;;;;;6.80;3.90;;;;;;;2.61;100.00;98922.34;4168978;28;20845;-71
2022/02/10 22:36:14;;;;;;;7.00;3.72;;;;;;;2.62;100.00;98918.50;4168970;28;20531;-71
2022/02/10 22:38:14;;;;;;;6.80;3.90;;;;;;;2.61;100.00;98909.50;4168070;28;20044;-71
2022/02/10 22:40:38;;;;;;;5.10;3.45;;;;;;;2.66;100.00;98916.75;4168187;28;20290;-71
2022/02/10 22:42:35;;;;;;;7.10;3.55;;;;;;;2.69;100.00;98918.84;4168145;28;20080;-71
2022/02/10 22:44:36;;;;;;;5.55;3.17;;;;;;;2.66;100.00;98925.75;4168780;28;20386;-72
2022/02/10 22:46:36;;;;;;;4.55;3.25;;;;;;;2.65;100.00;98917.84;4168338;28;20045;-71
2022/02/10 22:48:38;;;;;;;5.45;3.08;;;;;;;2.65;100.00;98915.94;4169297;28;20491;-71
2022/02/10 22:50:38;;;;;;;4.95;3.10;;;;;;;2.64;100.00;98908.84;4168887;28;20084;-71
2022/02/10 22:52:39;;;;;;;6.47;2.78;;;;;;;2.68;100.00;98912.56;4167571;28;20168;-71
2022/02/10 22:54:39;;;;;;;5.40;3.22;;;;;;;2.69;100.00;98911.44;4168961;28;20052;-71
2022/02/10 22:56:43;;;;;;;4.20;2.78;;;;;;;2.65;100.00;98907.75;4168162;28;20079;-71
2022/02/10 22:58:44;;;;;;;4.55;3.03;;;;;;;2.63;100.00;98898.25;4168647;28;20045;-71
2022/02/10 23:00:47;;;;;;;3.88;2.70;;;;;;;2.66;100.00;98905.81;4168661;28;20481;-71
2022/02/10 23:02:47;;;;;;;4.22;2.80;;;;;;;2.69;100.00;98900.53;4168588;28;20048;-71
2022/02/10 23:04:48;;;;;;;3.70;2.75;;;;;;;2.68;100.00;98907.09;4168660;28;20544;-71
2022/02/10 23:06:52;;;;;;;4.00;2.63;;;;;;;2.69;100.00;98905.19;4168090;28;20052;-71
2022/02/10 23:08:53;;;;;;;8.27;3.00;;;;;;;2.72;100.00;98910.81;4168646;28;20179;-71
2022/02/10 23:10:53;;;;;;;5.00;3.05;;;;;;;2.72;100.00;98913.53;4168809;28;20041;-72
2022/02/10 23:12:53;;;;;;;5.40;3.10;;;;;;;2.76;100.00;98913.72;4169957;28;20485;-71
2022/02/10 23:14:54;;;;;;;4.53;2.75;;;;;;;2.73;100.00;98912.44;4169335;28;20496;-71
2022/02/10 23:16:56;;;;;;;5.93;2.85;;;;;;;2.64;100.00;98908.03;4167354;28;20140;-71
2022/02/10 23:18:56;;;;;;;4.93;2.70;;;;;;;2.62;100.00;98911.09;4169799;28;20232;-71
2022/02/10 23:21:00;;;;;;;5.65;2.90;;;;;;;2.54;100.00;98901.75;4169607;28;20393;-71
2022/02/10 23:23:01;;;;;;;5.30;2.40;;;;;;;2.53;100.00;98908.31;4169198;28;20045;-71
2022/02/10 23:25:01;;;;;;;5.47;2.88;;;;;;;2.53;100.00;98905.59;4169654;28;20136;-71
2022/02/10 23:27:01;;;;;;;3.50;2.60;;;;;;;2.54;100.00;98901.75;4168630;28;20607;-71
2022/02/10 23:29:03;;;;;;;4.90;3.55;;;;;;;2.53;100.00;98911.06;4169432;28;20044;-71
2022/02/10 23:31:05;;;;;;;4.35;2.85;;;;;;;2.49;100.00;98899.16;4169506;28;20040;-71
2022/02/10 23:33:22;;;;;;;3.08;2.10;;;;;;;2.46;100.00;98910.69;4169431;28;20079;-71
2022/02/10 23:37:48;;;;;;;3.92;2.00;;;;;;;2.37;100.00;98906.31;4151253;28;20130;-71
2022/02/10 23:39:49;;;;;;;2.15;1.70;;;;;;;2.34;100.00;98902.31;4172519;28;20898;-71
2022/02/10 23:43:54;;;;;;;2.60;1.80;;;;;;;2.31;100.00;98899.38;4171416;28;20489;-71
2022/02/10 23:45:54;;;;;;;2.75;1.90;;;;;;;2.30;100.00;98905.94;4172283;28;20041;-71
2022/02/10 23:47:54;;;;;;;4.43;2.20;;;;;;;2.28;100.00;98905.47;4171485;28;20074;-71
2022/02/10 23:49:55;;;;;;;3.22;1.75;;;;;;;2.23;100.00;98904.50;4172551;28;20183;-71
2022/02/10 23:51:59;;;;;;;3.65;2.20;;;;;;;2.25;100.00;98904.97;4172306;28;20630;-71
2022/02/10 23:54:00;;;;;;;4.57;2.90;;;;;;;2.25;100.00;98896.78;4172573;28;20512;-71
2022/02/10 23:56:04;;;;;;;3.70;2.17;;;;;;;2.25;100.00;98888.59;4171853;28;20080;-71
2022/02/10 23:58:50;;;;;;;3.85;1.90;;;;;;;2.24;100.00;98895.19;4171053;28;20184;-71
